Alliance, OH (44601)

6:49 PM EDT on September 03, 2015 (GMT -0400)
Alliance WX | | Change Station
CLOSE
Current Station
Personal Weather Station
Location: Alliance, OH
Elevation: 1204 ft
Nearby Weather Stations

Elev 1204 ft 40.92 °N, 81.13 °W | Updated 10 minutes ago

Mostly Cloudy
Mostly Cloudy
68.8 °F
Feels Like 68.8 °F
N
0.0
Wind Variable Wind from NNW
Gusts 0.0 mph

Today
High -- | Low -- °F
--% Chance of Precip.
Yesterday
High -- | Low -- °F
Precip. -- in
6:53 AM 7:54 PM
Waning Gibbous, 66% visible
Pressure 29.98 in
Visibility 7.0 miles
Clouds Mostly Cloudy 11000 ft
Overcast 25000 ft
Dew Point 67 °F
Humidity 94%
Rainfall 0.16 in
Snow Depth Not available.
UV 0 out of 12
Pollen 10.30 out of 12
Air Quality Not available.
Flu Activity Not available.
SPECI KCAK 032239Z 00000KT 7SM -RA BKN110 OVC250 21/19 A2998 RMK AO2 TSE38 P0002 T02110189
Pressure 29.98 in
Visibility 7.0 miles
Clouds Mostly Cloudy 11000 ft
Overcast 25000 ft
Dew Point 67 °F
Humidity 94%
Rainfall 0.16 in
Snow Depth Not available.
UV 0 out of 12
Pollen 10.30 out of 12
Air Quality Not available.
Flu Activity Not available.
SPECI KCAK 032239Z 00000KT 7SM -RA BKN110 OVC250 21/19 A2998 RMK AO2 TSE38 P0002 T02110189

10-Day Weather Forecast

×

Almanac

Astronomy

Sep. 03, 2015 Rise Set
Actual Time
Civil Twilight
Nautical Twilight
Astronomical Twilight
Moon
Length of Visible Light
Length of Day
Tomorrow will be .
, % of the Moon is Illuminated

Today's Extremes

State Highs State Lows

Community

WunderPhotos

Upload Photos

1,852,049 photos uploaded!

WunderBlogs® & News

Nearby

Air Quality

  Air Quality AQ Index Pollutant
Not available.

Snow Depth

Station Depth Elevation

Earthquake Activity

City Distance Mag. Time & Date
Minimum magnitude displayed is 2.5.

Coastal Water Temperatures

Place Temperature

Stations

Nearby Weather Stations

Station Location Temp. Windchill Dew Point Humidity Wind Precip. Elev Updated Type